Time;durP1;ratioP1;P1;durP2;ratioP2;P2;SDS_P1;SDS_P2;PMS_P1;PMS_P2;Temp;Humidity;BMP_temperature;BMP_pressure;BME280_temperature;BME280_humidity;BME280_pressure;Samples;Min_cycle;Max_cycle;Signal;HPM_P1;HPM_P2
2022/03/11 00:00:43;;;;;;;10.57;6.20;;;;;;;;;;5069641;28;20111;-61
2022/03/11 00:03:10;;;;;;;10.63;6.57;;;;;;;;;;5068083;28;20076;-62
2022/03/11 00:05:37;;;;;;;8.00;5.63;;;;;;;;;;5069000;28;22059;-63
2022/03/11 00:08:03;;;;;;;10.95;8.30;;;;;;;;;;5068468;28;20056;-61
2022/03/11 00:10:29;;;;;;;10.32;6.88;;;;;;;;;;5069811;28;20055;-62
2022/03/11 00:12:55;;;;;;;11.15;7.40;;;;;;;;;;5068882;28;20070;-61
2022/03/11 00:15:22;;;;;;;13.48;8.40;;;;;;;;;;5070059;28;20330;-62
2022/03/11 00:17:48;;;;;;;12.13;7.07;;;;;;;;;;5052324;28;20127;-62
2022/03/11 00:20:19;;;;;;;14.57;9.98;;;;;;;;;;5070112;28;20040;-61
2022/03/11 00:22:46;;;;;;;13.00;8.13;;;;;;;;;;5069839;28;20037;-62
2022/03/11 00:25:12;;;;;;;13.23;8.48;;;;;;;;;;5068659;28;20052;-62
2022/03/11 00:27:38;;;;;;;9.63;6.82;;;;;;;;;;5068337;28;20497;-62
2022/03/11 00:30:05;;;;;;;9.38;5.65;;;;;;;;;;5069521;28;20665;-62
2022/03/11 00:32:31;;;;;;;10.93;7.10;;;;;;;;;;5068846;28;20044;-61
2022/03/11 00:34:57;;;;;;;9.88;5.72;;;;;;;;;;5068447;28;20071;-61
2022/03/11 00:37:23;;;;;;;12.40;9.27;;;;;;;;;;5068425;28;20037;-61
2022/03/11 00:39:49;;;;;;;10.65;7.25;;;;;;;;;;5068392;28;20046;-62
2022/03/11 00:42:15;;;;;;;12.90;8.77;;;;;;;;;;5067410;28;20048;-61
2022/03/11 00:44:41;;;;;;;12.07;7.22;;;;;;;;;;5069644;28;20379;-62
2022/03/11 00:47:09;;;;;;;12.25;6.07;;;;;;;;;;5069648;28;20037;-61
2022/03/11 00:49:35;;;;;;;16.92;12.38;;;;;;;;;;5051930;28;20032;-61
2022/03/11 00:52:01;;;;;;;15.10;8.40;;;;;;;;;;5068363;28;20048;-61
2022/03/11 00:54:27;;;;;;;13.43;7.85;;;;;;;;;;5068841;28;20036;-62
2022/03/11 00:56:53;;;;;;;11.60;8.45;;;;;;;;;;5067817;28;20048;-61
2022/03/11 00:59:20;;;;;;;13.90;9.50;;;;;;;;;;5050153;28;20117;-62
2022/03/11 01:01:46;;;;;;;14.10;10.75;;;;;;;;;;5066640;28;20040;-62
2022/03/11 01:04:12;;;;;;;16.40;10.85;;;;;;;;;;5050755;28;20477;-62
2022/03/11 01:06:38;;;;;;;18.88;13.75;;;;;;;;;;5066342;28;20125;-62
2022/03/11 01:09:04;;;;;;;14.75;8.55;;;;;;;;;;5065814;28;20433;-62
2022/03/11 01:11:31;;;;;;;16.00;10.02;;;;;;;;;;5068271;28;20040;-61
2022/03/11 01:13:57;;;;;;;16.88;11.77;;;;;;;;;;5066617;28;20091;-62
2022/03/11 01:16:24;;;;;;;21.00;12.85;;;;;;;;;;5050305;28;20091;-60
2022/03/11 01:18:51;;;;;;;15.07;8.95;;;;;;;;;;5068319;28;20044;-60
2022/03/11 01:21:17;;;;;;;11.70;7.13;;;;;;;;;;5065230;28;20044;-62
2022/03/11 01:23:43;;;;;;;19.52;15.30;;;;;;;;;;5066161;28;20083;-62
2022/03/11 01:26:11;;;;;;;19.13;12.63;;;;;;;;;;5065944;28;20037;-61
2022/03/11 01:28:41;;;;;;;28.42;17.00;;;;;;;;;;5049981;28;20041;-62
2022/03/11 01:31:07;;;;;;;20.35;13.20;;;;;;;;;;5068093;28;20039;-60
2022/03/11 01:33:33;;;;;;;23.90;15.95;;;;;;;;;;5049982;28;20044;-62
2022/03/11 01:35:59;;;;;;;20.08;13.45;;;;;;;;;;5067565;28;20033;-61
2022/03/11 01:38:25;;;;;;;22.00;14.15;;;;;;;;;;5049050;28;20558;-61
2022/03/11 01:40:51;;;;;;;25.63;17.83;;;;;;;;;;5067817;28;20159;-63
2022/03/11 01:43:18;;;;;;;17.13;11.35;;;;;;;;;;5064784;28;20272;-63
2022/03/11 01:45:45;;;;;;;23.13;11.95;;;;;;;;;;5048877;28;20111;-62
2022/03/11 01:48:11;;;;;;;19.23;13.50;;;;;;;;;;5065770;28;20063;-62
2022/03/11 01:50:41;;;;;;;15.98;10.52;;;;;;;;;;5066552;28;20497;-62
2022/03/11 01:53:11;;;;;;;23.13;14.82;;;;;;;;;;5033111;28;20040;-62
2022/03/11 01:55:37;;;;;;;15.88;10.88;;;;;;;;;;5067541;28;20044;-61
2022/03/11 01:58:04;;;;;;;23.25;16.63;;;;;;;;;;5067966;28;20044;-62
2022/03/11 02:00:30;;;;;;;20.83;15.93;;;;;;;;;;5065104;28;20501;-61
2022/03/11 02:02:57;;;;;;;20.38;12.18;;;;;;;;;;5066626;28;20162;-61
2022/03/11 02:05:23;;;;;;;19.27;13.35;;;;;;;;;;5066679;28;20071;-62
2022/03/11 02:07:50;;;;;;;17.88;11.95;;;;;;;;;;5066382;28;20498;-61
2022/03/11 02:10:16;;;;;;;15.48;10.00;;;;;;;;;;5067744;28;20382;-61
2022/03/11 02:12:43;;;;;;;17.48;9.38;;;;;;;;;;5066045;28;20151;-60
2022/03/11 02:15:10;;;;;;;20.00;13.88;;;;;;;;;;5065943;28;20079;-61
2022/03/11 02:17:36;;;;;;;25.95;17.95;;;;;;;;;;5049387;28;20040;-62
2022/03/11 02:20:06;;;;;;;24.27;17.15;;;;;;;;;;5067698;28;20086;-61
2022/03/11 02:22:36;;;;;;;26.85;16.77;;;;;;;;;;5058000;28;20036;-61
2022/03/11 02:25:02;;;;;;;24.75;15.70;;;;;;;;;;5067261;28;20106;-61
2022/03/11 02:27:28;;;;;;;25.83;16.15;;;;;;;;;;5067353;28;20148;-61
2022/03/11 02:29:54;;;;;;;23.60;15.32;;;;;;;;;;5067962;28;20033;-61
2022/03/11 02:32:20;;;;;;;21.92;15.13;;;;;;;;;;5067504;28;20045;-61
2022/03/11 02:34:46;;;;;;;19.15;10.30;;;;;;;;;;5067017;28;20033;-62
2022/03/11 02:37:12;;;;;;;26.30;15.63;;;;;;;;;;5066840;28;20032;-61
2022/03/11 02:39:38;;;;;;;28.83;17.10;;;;;;;;;;5066089;28;20138;-61
2022/03/11 02:42:05;;;;;;;22.73;16.58;;;;;;;;;;5065745;28;20044;-62
2022/03/11 02:44:31;;;;;;;25.38;15.82;;;;;;;;;;5049468;28;20036;-61
2022/03/11 02:46:59;;;;;;;14.00;10.43;;;;;;;;;;5066275;28;20054;-62
2022/03/11 02:49:26;;;;;;;30.38;20.33;;;;;;;;;;5049389;28;20060;-61
2022/03/11 02:51:53;;;;;;;27.20;18.77;;;;;;;;;;5065723;28;20043;-62
2022/03/11 02:54:19;;;;;;;24.27;18.40;;;;;;;;;;5065915;28;20545;-62
2022/03/11 02:56:45;;;;;;;19.95;11.65;;;;;;;;;;5052042;28;20044;-60
2022/03/11 02:59:11;;;;;;;20.45;15.48;;;;;;;;;;5070271;28;20082;-62
2022/03/11 03:01:37;;;;;;;23.80;15.43;;;;;;;;;;5071582;28;20033;-62
2022/03/11 03:04:03;;;;;;;24.58;15.80;;;;;;;;;;5069477;28;20036;-61
2022/03/11 03:06:29;;;;;;;20.55;14.15;;;;;;;;;;5070110;28;20072;-61
2022/03/11 03:08:55;;;;;;;21.35;14.85;;;;;;;;;;5069333;28;20038;-61
2022/03/11 03:11:21;;;;;;;25.65;17.20;;;;;;;;;;5070568;28;20040;-61
2022/03/11 03:13:47;;;;;;;17.77;11.27;;;;;;;;;;5068989;28;20074;-63
2022/03/11 03:16:13;;;;;;;17.33;11.70;;;;;;;;;;5070608;28;20110;-62
2022/03/11 03:18:39;;;;;;;24.48;14.80;;;;;;;;;;5069463;28;20040;-62
2022/03/11 03:21:05;;;;;;;24.45;17.83;;;;;;;;;;5069040;28;20040;-61
2022/03/11 03:23:31;;;;;;;28.48;19.65;;;;;;;;;;5068932;28;20062;-61
2022/03/11 03:25:58;;;;;;;25.77;16.73;;;;;;;;;;5069489;28;20036;-62
2022/03/11 03:28:24;;;;;;;20.90;14.02;;;;;;;;;;5070284;28;20041;-61
2022/03/11 03:30:50;;;;;;;19.42;13.85;;;;;;;;;;5070877;28;20036;-62
2022/03/11 03:33:16;;;;;;;14.20;8.77;;;;;;;;;;5068988;28;20040;-61
2022/03/11 03:35:42;;;;;;;26.45;19.25;;;;;;;;;;5070917;28;20064;-61
2022/03/11 03:38:08;;;;;;;24.98;14.93;;;;;;;;;;5070601;28;20042;-61
2022/03/11 03:40:35;;;;;;;28.27;20.25;;;;;;;;;;5069784;28;20545;-60
2022/03/11 03:43:01;;;;;;;14.93;8.65;;;;;;;;;;5070053;28;20047;-62
2022/03/11 03:45:28;;;;;;;27.10;18.70;;;;;;;;;;5070013;28;20033;-62
2022/03/11 03:47:56;;;;;;;24.40;15.35;;;;;;;;;;5069015;28;20053;-62
2022/03/11 03:50:22;;;;;;;23.42;16.05;;;;;;;;;;5068345;28;20033;-61
2022/03/11 03:52:48;;;;;;;19.58;12.20;;;;;;;;;;5068957;28;20044;-62
2022/03/11 03:55:14;;;;;;;23.92;18.08;;;;;;;;;;5069237;28;20044;-61
2022/03/11 03:57:40;;;;;;;22.63;14.30;;;;;;;;;;5068878;28;20043;-62
2022/03/11 04:00:08;;;;;;;20.50;15.00;;;;;;;;;;5068671;28;20070;-63
2022/03/11 04:02:36;;;;;;;18.55;13.38;;;;;;;;;;5070127;28;20055;-60
2022/03/11 04:05:03;;;;;;;25.33;17.83;;;;;;;;;;5068320;28;20127;-62
2022/03/11 04:07:29;;;;;;;25.65;18.77;;;;;;;;;;5076256;28;20036;-62
2022/03/11 04:09:55;;;;;;;20.92;14.02;;;;;;;;;;5068314;28;20094;-62
2022/03/11 04:12:21;;;;;;;17.80;12.38;;;;;;;;;;5067944;28;20049;-62
2022/03/11 04:14:47;;;;;;;25.55;15.63;;;;;;;;;;5052491;28;20102;-62
2022/03/11 04:17:13;;;;;;;22.10;14.68;;;;;;;;;;5068557;28;20036;-61
2022/03/11 04:19:39;;;;;;;29.67;20.48;;;;;;;;;;5069277;28;20069;-61
2022/03/11 04:22:05;;;;;;;21.92;15.30;;;;;;;;;;5075102;28;20044;-62
2022/03/11 04:24:31;;;;;;;28.15;19.40;;;;;;;;;;5068367;28;20032;-63
2022/03/11 04:26:57;;;;;;;25.17;17.13;;;;;;;;;;5051447;28;20207;-63
2022/03/11 04:29:26;;;;;;;34.58;24.20;;;;;;;;;;5067759;28;20090;-62
2022/03/11 04:31:52;;;;;;;29.35;19.73;;;;;;;;;;5046418;28;20093;-61
2022/03/11 04:34:18;;;;;;;34.67;24.17;;;;;;;;;;5069870;28;20144;-62
2022/03/11 04:36:44;;;;;;;27.88;20.23;;;;;;;;;;5068205;28;20106;-62
2022/03/11 04:39:10;;;;;;;22.77;13.90;;;;;;;;;;5076438;28;20040;-61
2022/03/11 04:41:36;;;;;;;20.60;13.18;;;;;;;;;;5068010;28;20482;-61
2022/03/11 04:44:04;;;;;;;28.80;20.58;;;;;;;;;;5066059;28;20498;-61
2022/03/11 04:46:30;;;;;;;29.08;18.58;;;;;;;;;;5068035;28;20040;-62
2022/03/11 04:48:56;;;;;;;20.42;13.10;;;;;;;;;;5067212;28;20402;-60
2022/03/11 04:51:22;;;;;;;20.00;12.32;;;;;;;;;;5067248;28;20036;-63
2022/03/11 04:53:50;;;;;;;24.60;18.13;;;;;;;;;;5066733;28;20521;-62
2022/03/11 04:56:16;;;;;;;13.63;8.82;;;;;;;;;;5067614;28;20041;-62
2022/03/11 04:58:42;;;;;;;18.45;10.65;;;;;;;;;;5050845;28;20040;-61
2022/03/11 05:01:08;;;;;;;20.02;14.63;;;;;;;;;;5066903;28;20040;-62
2022/03/11 05:03:35;;;;;;;25.30;15.63;;;;;;;;;;5050333;28;20085;-62
2022/03/11 05:06:01;;;;;;;16.95;11.50;;;;;;;;;;5068351;28;20040;-61
2022/03/11 05:08:27;;;;;;;19.33;11.75;;;;;;;;;;5068396;28;20068;-62
2022/03/11 05:10:53;;;;;;;18.05;10.23;;;;;;;;;;5068256;28;20044;-61
2022/03/11 05:13:19;;;;;;;16.70;12.65;;;;;;;;;;5066013;28;20094;-61
2022/03/11 05:15:45;;;;;;;15.85;9.93;;;;;;;;;;5067826;28;20044;-60
2022/03/11 05:18:12;;;;;;;19.17;14.13;;;;;;;;;;5066977;28;20459;-62
2022/03/11 05:20:38;;;;;;;24.38;18.13;;;;;;;;;;5067951;28;20441;-61
2022/03/11 05:23:04;;;;;;;17.02;10.43;;;;;;;;;;5050624;28;20478;-62
2022/03/11 05:25:30;;;;;;;27.95;18.45;;;;;;;;;;5066383;28;20542;-62
2022/03/11 05:27:57;;;;;;;21.65;12.52;;;;;;;;;;5068420;28;20048;-61
2022/03/11 05:30:23;;;;;;;20.95;11.65;;;;;;;;;;5050421;28;20372;-60
2022/03/11 05:32:49;;;;;;;28.50;20.52;;;;;;;;;;5068258;28;20048;-61
2022/03/11 05:35:15;;;;;;;18.33;11.10;;;;;;;;;;5066130;28;20043;-62
2022/03/11 05:37:42;;;;;;;25.55;18.17;;;;;;;;;;5067839;28;20159;-61
2022/03/11 05:40:09;;;;;;;13.85;9.65;;;;;;;;;;5066799;28;20040;-61
2022/03/11 05:42:35;;;;;;;14.55;8.02;;;;;;;;;;5066350;28;20036;-61
2022/03/11 05:45:02;;;;;;;26.88;21.20;;;;;;;;;;5050124;28;20459;-62
2022/03/11 05:47:29;;;;;;;21.60;14.45;;;;;;;;;;5066850;28;20568;-62
2022/03/11 05:49:55;;;;;;;16.55;11.63;;;;;;;;;;5066568;28;20044;-62
2022/03/11 05:52:22;;;;;;;23.48;16.52;;;;;;;;;;5067564;28;20045;-61
2022/03/11 05:54:48;;;;;;;19.40;12.60;;;;;;;;;;5065951;28;20083;-61
2022/03/11 05:57:14;;;;;;;33.70;23.27;;;;;;;;;;5066866;28;20040;-61
2022/03/11 05:59:40;;;;;;;26.25;17.02;;;;;;;;;;5067910;28;20082;-61
2022/03/11 06:02:06;;;;;;;22.35;13.48;;;;;;;;;;5066004;28;20137;-62
2022/03/11 06:04:32;;;;;;;29.27;19.85;;;;;;;;;;5067883;28;20068;-62
2022/03/11 06:06:58;;;;;;;21.00;13.27;;;;;;;;;;5067776;28;20033;-61
2022/03/11 06:09:24;;;;;;;39.97;29.27;;;;;;;;;;5050440;28;20079;-62
2022/03/11 06:11:53;;;;;;;29.13;19.77;;;;;;;;;;5067940;28;20056;-61
2022/03/11 06:14:19;;;;;;;34.95;24.48;;;;;;;;;;5067713;28;20087;-61
2022/03/11 06:16:45;;;;;;;29.00;18.48;;;;;;;;;;5067194;28;20036;-62
2022/03/11 06:19:11;;;;;;;23.17;15.15;;;;;;;;;;5031616;28;20045;-61
2022/03/11 06:21:37;;;;;;;18.38;11.57;;;;;;;;;;5065438;28;20395;-62
2022/03/11 06:24:03;;;;;;;26.75;18.65;;;;;;;;;;5065452;28;20110;-61
2022/03/11 06:26:29;;;;;;;22.50;14.63;;;;;;;;;;5067378;28;20040;-62
2022/03/11 06:28:56;;;;;;;22.88;15.95;;;;;;;;;;5067777;28;20093;-61
2022/03/11 06:31:22;;;;;;;16.27;9.25;;;;;;;;;;5069738;28;20423;-61
2022/03/11 06:33:48;;;;;;;16.65;11.45;;;;;;;;;;5070996;28;20048;-62
2022/03/11 06:36:14;;;;;;;18.77;11.43;;;;;;;;;;5069383;28;20053;-61
2022/03/11 06:38:40;;;;;;;19.73;11.82;;;;;;;;;;5069851;28;20123;-61
2022/03/11 06:41:06;;;;;;;19.52;12.68;;;;;;;;;;5053177;28;20043;-61
2022/03/11 06:43:33;;;;;;;12.60;6.60;;;;;;;;;;5070537;28;20045;-62
2022/03/11 06:45:59;;;;;;;15.70;10.00;;;;;;;;;;5070731;28;20055;-62
2022/03/11 06:48:25;;;;;;;24.90;18.70;;;;;;;;;;5070856;28;20409;-61
2022/03/11 06:50:52;;;;;;;23.10;17.17;;;;;;;;;;5052102;28;20478;-62
2022/03/11 06:53:18;;;;;;;25.45;14.32;;;;;;;;;;5069089;28;20060;-61
2022/03/11 06:55:44;;;;;;;18.63;10.57;;;;;;;;;;5069322;28;20044;-61
2022/03/11 06:58:10;;;;;;;22.45;16.10;;;;;;;;;;5070680;28;20047;-62
2022/03/11 07:00:36;;;;;;;20.00;12.48;;;;;;;;;;5069476;28;20036;-61
2022/03/11 07:03:03;;;;;;;15.82;10.15;;;;;;;;;;5070513;28;20086;-62
2022/03/11 07:05:29;;;;;;;28.88;16.95;;;;;;;;;;5070155;28;20035;-61
2022/03/11 07:07:55;;;;;;;19.52;14.35;;;;;;;;;;5052703;28;20098;-61
2022/03/11 07:10:21;;;;;;;18.45;13.77;;;;;;;;;;5063076;28;20044;-61
2022/03/11 07:12:47;;;;;;;20.08;13.13;;;;;;;;;;5068130;28;20391;-62
2022/03/11 07:15:13;;;;;;;29.65;20.52;;;;;;;;;;5070326;28;20052;-61
2022/03/11 07:17:39;;;;;;;18.48;10.32;;;;;;;;;;5069614;28;20033;-61
2022/03/11 07:20:06;;;;;;;22.55;15.20;;;;;;;;;;5068895;28;20040;-62
2022/03/11 07:22:32;;;;;;;22.33;13.50;;;;;;;;;;5070153;28;20283;-61
2022/03/11 07:25:02;;;;;;;25.63;17.65;;;;;;;;;;5070147;28;20045;-61
2022/03/11 07:27:28;;;;;;;21.88;13.38;;;;;;;;;;5069021;28;20044;-60
2022/03/11 07:29:56;;;;;;;17.52;12.63;;;;;;;;;;5068984;28;20494;-62
2022/03/11 07:32:22;;;;;;;17.23;10.63;;;;;;;;;;5067911;28;20075;-61
2022/03/11 07:34:48;;;;;;;17.48;12.00;;;;;;;;;;5070167;28;20657;-62
2022/03/11 07:37:14;;;;;;;21.95;14.10;;;;;;;;;;5050673;28;20040;-61
2022/03/11 07:39:41;;;;;;;26.23;18.30;;;;;;;;;;5069588;28;20599;-62
2022/03/11 07:42:07;;;;;;;18.88;11.88;;;;;;;;;;5069375;28;20041;-62
2022/03/11 07:44:33;;;;;;;20.17;13.98;;;;;;;;;;5051906;28;20486;-60
2022/03/11 07:46:59;;;;;;;17.00;10.00;;;;;;;;;;5067594;28;20041;-61
2022/03/11 07:49:27;;;;;;;20.38;13.65;;;;;;;;;;5051382;28;20155;-60
2022/03/11 07:51:54;;;;;;;18.02;8.90;;;;;;;;;;5069869;28;20040;-62
2022/03/11 07:54:20;;;;;;;22.27;15.57;;;;;;;;;;5069112;28;20071;-62
2022/03/11 07:56:46;;;;;;;21.30;15.35;;;;;;;;;;5067685;28;20044;-61
2022/03/11 07:59:12;;;;;;;14.85;10.30;;;;;;;;;;5068086;28;20502;-61
2022/03/11 08:01:38;;;;;;;20.67;15.40;;;;;;;;;;5069983;28;20033;-63
2022/03/11 08:04:05;;;;;;;21.02;13.88;;;;;;;;;;5069038;28;20036;-62
2022/03/11 08:06:31;;;;;;;18.67;12.52;;;;;;;;;;5068787;28;20074;-62
2022/03/11 08:08:57;;;;;;;19.88;12.35;;;;;;;;;;5069923;28;20317;-62
2022/03/11 08:11:24;;;;;;;17.55;13.75;;;;;;;;;;5070161;28;20033;-62
2022/03/11 08:13:50;;;;;;;23.15;17.60;;;;;;;;;;5067552;28;20390;-62
2022/03/11 08:16:16;;;;;;;21.95;16.15;;;;;;;;;;5051405;28;20094;-61
2022/03/11 08:18:43;;;;;;;18.25;10.70;;;;;;;;;;5068614;28;20567;-61
2022/03/11 08:21:11;;;;;;;23.02;10.60;;;;;;;;;;5070879;28;20040;-62
2022/03/11 08:23:42;;;;;;;16.83;10.95;;;;;;;;;;5069217;28;20105;-62
2022/03/11 08:26:25;;;;;;;14.38;9.50;;;;;;;;;;5068833;28;20390;-61
2022/03/11 08:28:51;;;;;;;19.98;13.82;;;;;;;;;;5070438;28;20537;-60
2022/03/11 08:31:18;;;;;;;19.45;13.70;;;;;;;;;;5051126;28;20102;-62
2022/03/11 08:33:44;;;;;;;12.68;8.30;;;;;;;;;;5067826;28;20043;-62
2022/03/11 08:36:10;;;;;;;19.58;12.77;;;;;;;;;;5067789;28;20036;-62
2022/03/11 08:38:36;;;;;;;17.42;13.85;;;;;;;;;;5050799;28;20037;-62
2022/03/11 08:41:06;;;;;;;11.43;8.38;;;;;;;;;;5066603;28;20119;-62
2022/03/11 08:43:33;;;;;;;18.17;12.95;;;;;;;;;;5065842;28;20052;-62
2022/03/11 08:45:59;;;;;;;16.20;9.07;;;;;;;;;;5069164;28;20275;-61
2022/03/11 08:48:25;;;;;;;15.80;11.40;;;;;;;;;;5051197;28;20068;-61
2022/03/11 08:50:51;;;;;;;15.75;12.73;;;;;;;;;;5050238;28;20063;-61
2022/03/11 08:53:18;;;;;;;24.67;18.27;;;;;;;;;;5066974;28;20033;-60
2022/03/11 08:55:44;;;;;;;20.27;16.15;;;;;;;;;;5051004;28;20071;-62
2022/03/11 08:58:11;;;;;;;15.73;12.75;;;;;;;;;;5065687;28;20068;-62
2022/03/11 09:00:37;;;;;;;20.67;15.90;;;;;;;;;;5049420;28;20040;-62
2022/03/11 09:03:04;;;;;;;20.10;14.63;;;;;;;;;;5049224;28;20040;-62
2022/03/11 09:05:30;;;;;;;17.10;10.38;;;;;;;;;;5060106;28;20090;-62
2022/03/11 09:07:58;;;;;;;11.90;8.77;;;;;;;;;;5066524;28;20061;-62
2022/03/11 09:10:24;;;;;;;21.27;15.75;;;;;;;;;;5066727;28;21227;-62
2022/03/11 09:12:50;;;;;;;21.00;15.52;;;;;;;;;;5066123;28;20044;-61
2022/03/11 09:15:16;;;;;;;17.90;11.05;;;;;;;;;;5049352;28;20493;-61
2022/03/11 09:17:45;;;;;;;12.57;7.68;;;;;;;;;;5067513;28;20071;-62
2022/03/11 09:20:12;;;;;;;23.10;16.17;;;;;;;;;;5049021;28;20090;-61
2022/03/11 09:22:39;;;;;;;23.05;15.55;;;;;;;;;;5049386;28;20052;-62
2022/03/11 09:25:07;;;;;;;15.18;11.02;;;;;;;;;;5064967;28;20051;-62
2022/03/11 09:27:33;;;;;;;18.25;10.43;;;;;;;;;;5049312;28;20072;-61
2022/03/11 09:29:59;;;;;;;18.92;15.18;;;;;;;;;;5048492;28;20040;-60
2022/03/11 09:32:26;;;;;;;13.38;9.15;;;;;;;;;;5049536;28;20055;-61
2022/03/11 09:34:52;;;;;;;23.35;15.27;;;;;;;;;;5065871;28;20054;-62
2022/03/11 09:37:18;;;;;;;16.45;9.05;;;;;;;;;;5065829;28;20067;-61
2022/03/11 09:39:45;;;;;;;19.13;14.13;;;;;;;;;;5064922;28;20119;-62
2022/03/11 09:42:12;;;;;;;21.48;15.23;;;;;;;;;;5050101;28;20076;-62
2022/03/11 09:44:38;;;;;;;17.42;12.55;;;;;;;;;;5065977;28;20126;-62
2022/03/11 09:47:05;;;;;;;19.38;14.57;;;;;;;;;;5065679;28;20092;-62
2022/03/11 09:49:35;;;;;;;19.85;14.30;;;;;;;;;;5066026;28;20045;-62
2022/03/11 09:52:02;;;;;;;21.73;15.80;;;;;;;;;;5066479;28;20045;-62
2022/03/11 09:54:28;;;;;;;17.52;14.43;;;;;;;;;;5067577;28;20040;-62
2022/03/11 09:56:54;;;;;;;16.67;12.48;;;;;;;;;;5049179;28;20506;-63
2022/03/11 09:59:21;;;;;;;20.52;15.35;;;;;;;;;;5067189;28;20065;-62
2022/03/11 10:01:47;;;;;;;20.90;16.63;;;;;;;;;;5048310;28;20115;-62
2022/03/11 10:04:13;;;;;;;19.80;14.85;;;;;;;;;;5065227;28;20078;-62
2022/03/11 10:06:39;;;;;;;15.07;10.30;;;;;;;;;;5063742;28;20494;-61
2022/03/11 10:09:06;;;;;;;13.70;6.95;;;;;;;;;;5066995;28;20448;-62
2022/03/11 10:11:36;;;;;;;11.05;6.90;;;;;;;;;;5069154;28;20040;-63
2022/03/11 10:14:05;;;;;;;14.13;9.55;;;;;;;;;;5067240;28;20098;-62
2022/03/11 10:16:31;;;;;;;13.52;8.32;;;;;;;;;;5067731;28;20052;-62
2022/03/11 10:18:59;;;;;;;18.00;10.48;;;;;;;;;;5067638;28;20465;-61
2022/03/11 10:21:29;;;;;;;16.02;10.98;;;;;;;;;;5069125;28;20037;-62
2022/03/11 10:23:55;;;;;;;14.35;9.98;;;;;;;;;;5068081;28;20355;-61
2022/03/11 10:26:34;;;;;;;17.13;12.23;;;;;;;;;;5069465;28;20044;-62
2022/03/11 10:29:01;;;;;;;13.43;7.40;;;;;;;;;;5069339;28;20041;-63
2022/03/11 10:31:31;;;;;;;17.85;9.43;;;;;;;;;;5067772;28;20045;-62
2022/03/11 10:34:13;;;;;;;18.83;11.88;;;;;;;;;;5069141;28;20460;-62
2022/03/11 10:36:47;;;;;;;20.17;12.05;;;;;;;;;;5069138;28;20115;-62
2022/03/11 10:39:17;;;;;;;17.35;11.88;;;;;;;;;;5069011;28;20041;-62
2022/03/11 10:41:45;;;;;;;18.58;11.35;;;;;;;;;;5068674;28;20036;-62
2022/03/11 10:44:12;;;;;;;18.90;11.88;;;;;;;;;;5067538;28;20162;-62
2022/03/11 10:46:38;;;;;;;18.42;12.80;;;;;;;;;;5067432;28;20136;-62
2022/03/11 10:49:04;;;;;;;17.35;12.10;;;;;;;;;;5066482;28;20458;-62
2022/03/11 10:51:40;;;;;;;17.20;12.15;;;;;;;;;;5065415;28;20565;-62
2022/03/11 10:54:09;;;;;;;16.92;11.30;;;;;;;;;;5050672;28;20475;-62
2022/03/11 10:56:39;;;;;;;19.90;12.07;;;;;;;;;;5066818;28;20028;-61
2022/03/11 10:59:34;;;;;;;18.08;11.35;;;;;;;;;;5066814;28;20067;-64
2022/03/11 11:02:00;;;;;;;13.98;10.93;;;;;;;;;;5058063;28;20064;-62
2022/03/11 11:04:27;;;;;;;17.02;11.63;;;;;;;;;;5063441;28;20033;-61
2022/03/11 11:06:54;;;;;;;16.83;10.70;;;;;;;;;;5066536;28;20344;-63
2022/03/11 11:09:23;;;;;;;17.77;11.88;;;;;;;;;;5065653;28;20044;-63
2022/03/11 11:11:50;;;;;;;15.82;10.77;;;;;;;;;;5064106;28;20101;-64
2022/03/11 11:14:17;;;;;;;16.75;10.57;;;;;;;;;;5014130;28;20063;-63
2022/03/11 11:16:44;;;;;;;14.07;10.68;;;;;;;;;;5004286;28;20064;-63
2022/03/11 11:19:11;;;;;;;14.52;9.43;;;;;;;;;;5029682;28;20538;-62
2022/03/11 11:21:56;;;;;;;15.43;10.32;;;;;;;;;;5027995;28;20048;-63
2022/03/11 11:24:23;;;;;;;14.20;10.75;;;;;;;;;;5028377;28;20387;-61
2022/03/11 11:26:52;;;;;;;16.55;11.07;;;;;;;;;;5028057;28;20048;-63
2022/03/11 11:29:20;;;;;;;17.10;10.00;;;;;;;;;;5029674;28;20089;-63
2022/03/11 11:31:47;;;;;;;14.10;10.75;;;;;;;;;;5011246;28;20044;-63
2022/03/11 11:34:33;;;;;;;11.70;8.48;;;;;;;;;;5026920;28;20042;-62
2022/03/11 11:37:00;;;;;;;9.60;6.72;;;;;;;;;;5029376;28;20399;-62
2022/03/11 11:39:27;;;;;;;20.08;10.65;;;;;;;;;;5027598;28;20487;-64
2022/03/11 11:41:55;;;;;;;16.00;11.02;;;;;;;;;;5028178;28;20077;-63
2022/03/11 11:44:31;;;;;;;12.35;8.45;;;;;;;;;;5028717;28;20379;-63
2022/03/11 11:47:13;;;;;;;15.40;10.13;;;;;;;;;;5028967;28;20045;-62
2022/03/11 11:49:42;;;;;;;13.45;9.48;;;;;;;;;;5026334;28;20040;-62
2022/03/11 11:52:12;;;;;;;14.00;11.27;;;;;;;;;;5028927;28;20041;-63
2022/03/11 11:54:39;;;;;;;14.82;11.00;;;;;;;;;;5026637;28;20551;-62
2022/03/11 11:57:05;;;;;;;16.02;10.70;;;;;;;;;;5028353;28;20026;-62
2022/03/11 11:59:35;;;;;;;15.68;10.93;;;;;;;;;;5028779;28;20044;-63
2022/03/11 12:02:02;;;;;;;15.48;9.93;;;;;;;;;;5028334;28;20116;-62
2022/03/11 12:04:35;;;;;;;16.45;10.55;;;;;;;;;;5030017;28;20115;-61
2022/03/11 12:07:03;;;;;;;15.07;9.18;;;;;;;;;;5030132;28;20203;-63
2022/03/11 12:09:50;;;;;;;10.50;8.48;;;;;;;;;;5044562;28;20160;-63
2022/03/11 12:12:29;;;;;;;14.25;9.27;;;;;;;;;;5028594;28;20037;-61
2022/03/11 12:15:04;;;;;;;12.40;6.60;;;;;;;;;;5029404;28;20095;-62
2022/03/11 12:17:43;;;;;;;13.32;9.98;;;;;;;;;;5035022;28;20042;-62
2022/03/11 12:20:21;;;;;;;10.40;9.15;;;;;;;;;;5026165;28;20072;-62
2022/03/11 12:22:54;;;;;;;14.98;9.50;;;;;;;;;;5028486;28;20107;-62
2022/03/11 12:25:24;;;;;;;10.27;6.97;;;;;;;;;;5029754;28;20041;-63
2022/03/11 12:28:10;;;;;;;14.50;9.30;;;;;;;;;;5027208;28;20048;-62
2022/03/11 12:30:36;;;;;;;11.18;7.35;;;;;;;;;;5027696;28;20095;-63
2022/03/11 12:33:04;;;;;;;27.95;10.55;;;;;;;;;;5029276;28;20060;-62
2022/03/11 12:35:31;;;;;;;11.38;8.70;;;;;;;;;;5028035;28;20037;-62
2022/03/11 12:37:57;;;;;;;16.00;8.55;;;;;;;;;;5011187;28;20033;-63
2022/03/11 12:40:24;;;;;;;20.00;8.98;;;;;;;;;;5028965;28;20034;-62
2022/03/11 12:42:50;;;;;;;10.32;7.25;;;;;;;;;;5029120;28;20111;-62
2022/03/11 12:45:38;;;;;;;13.48;8.70;;;;;;;;;;5027599;28;20442;-62
2022/03/11 12:48:05;;;;;;;10.57;6.53;;;;;;;;;;5029003;28;20064;-62
2022/03/11 12:50:31;;;;;;;11.93;7.70;;;;;;;;;;5027399;28;20041;-63
2022/03/11 12:52:58;;;;;;;12.93;9.10;;;;;;;;;;5026806;28;20053;-63
2022/03/11 12:55:25;;;;;;;11.55;8.27;;;;;;;;;;5027385;28;20040;-62
2022/03/11 12:57:55;;;;;;;15.82;9.32;;;;;;;;;;5028869;28;20037;-62
2022/03/11 13:00:22;;;;;;;12.88;7.53;;;;;;;;;;5025540;28;20037;-63
2022/03/11 13:02:49;;;;;;;12.90;8.30;;;;;;;;;;5022831;28;20088;-63
2022/03/11 13:05:19;;;;;;;10.93;8.10;;;;;;;;;;5008712;28;20184;-63
2022/03/11 13:07:45;;;;;;;9.98;6.63;;;;;;;;;;5020848;28;20144;-62
2022/03/11 13:10:15;;;;;;;10.55;7.45;;;;;;;;;;5027480;28;20268;-62
2022/03/11 13:12:42;;;;;;;12.00;7.53;;;;;;;;;;5027066;28;20073;-61
2022/03/11 13:15:12;;;;;;;10.63;5.40;;;;;;;;;;5026010;28;20057;-63
2022/03/11 13:17:45;;;;;;;7.72;5.28;;;;;;;;;;5041282;28;20045;-61
2022/03/11 13:20:11;;;;;;;;;;;;;;;;;;5028495;28;20519;-63
2022/03/11 13:22:37;;;;;;;14.40;7.55;;;;;;;;;;5026704;28;19985;-62
2022/03/11 13:25:05;;;;;;;11.43;7.40;;;;;;;;;;5024901;28;20427;-62
2022/03/11 13:27:38;;;;;;;10.32;6.20;;;;;;;;;;5028405;28;20037;-62
2022/03/11 13:30:07;;;;;;;11.30;6.50;;;;;;;;;;5021948;28;20491;-62
2022/03/11 13:32:33;;;;;;;9.77;5.70;;;;;;;;;;5009085;28;20408;-62
2022/03/11 13:34:59;;;;;;;7.75;4.15;;;;;;;;;;5026995;28;20483;-61
2022/03/11 13:37:25;;;;;;;9.65;7.47;;;;;;;;;;5026115;28;20047;-62
2022/03/11 13:40:11;;;;;;;13.88;7.25;;;;;;;;;;5024762;28;20368;-61
2022/03/11 13:42:37;;;;;;;10.32;6.50;;;;;;;;;;5025418;28;20041;-61
2022/03/11 13:45:07;;;;;;;9.20;5.35;;;;;;;;;;5041778;28;20041;-63
2022/03/11 13:47:33;;;;;;;9.00;7.05;;;;;;;;;;5025587;28;20053;-62
2022/03/11 13:50:08;;;;;;;12.32;5.90;;;;;;;;;;5026347;28;20048;-63
2022/03/11 13:52:41;;;;;;;10.25;5.70;;;;;;;;;;5009942;28;20029;-61
2022/03/11 13:55:10;;;;;;;6.13;3.92;;;;;;;;;;5025955;28;20100;-62
2022/03/11 13:57:37;;;;;;;12.18;7.25;;;;;;;;;;5023142;28;20119;-62
2022/03/11 14:00:15;;;;;;;11.13;7.40;;;;;;;;;;5025094;28;20536;-62
2022/03/11 14:02:41;;;;;;;9.35;6.13;;;;;;;;;;5026492;28;20041;-62
2022/03/11 14:05:16;;;;;;;9.05;5.72;;;;;;;;;;5003558;28;20495;-62
2022/03/11 14:07:42;;;;;;;10.65;5.55;;;;;;;;;;5008483;28;20045;-62
2022/03/11 14:10:15;;;;;;;7.65;4.30;;;;;;;;;;5024314;28;20045;-62
2022/03/11 14:12:41;;;;;;;5.93;3.38;;;;;;;;;;5026048;28;20052;-63
2022/03/11 14:15:07;;;;;;;9.30;5.50;;;;;;;;;;5025466;28;20368;-63
2022/03/11 14:17:34;;;;;;;6.40;4.72;;;;;;;;;;5025164;28;20041;-62
2022/03/11 14:20:00;;;;;;;11.55;5.65;;;;;;;;;;5026759;28;20033;-62
2022/03/11 14:22:26;;;;;;;11.65;6.13;;;;;;;;;;5028535;28;20049;-62